Baltic Marshall — C4KD2 — position and weather

sailwx.info

Track history (hours):
 
Tides and Currents Weather Stations Pressure Air Temp Water Temp Dewpoint Dewpoint Depression Visibility Wind Speed Wind Dir Waves Ship Positions

Baltic Marshall

Last reported at 2014-Aug-31 00:15 UTC. Time now 2014-Aug-31 02:37 UTC.
Position N 58°47' E 010°22'.

Length 183 m; draft 10.6 m.

Type: Tanker. MMSI: 212118000.

Date/timePositionNaut miles runAvg speedWind from/ knotsBaromVisibWave heightAir tempDewpointWater temp
2014-Aug-31 00:15N 58°47' E 010°22'912.7
2014-Aug-30 23:33N 58°54' E 010°31'10 9.6
2014-Aug-30 22:33N 59°02' E 010°42'9 9.2
2014-Aug-30 21:33N 59°11' E 010°38'10 9.6
2014-Aug-30 20:33N 59°20' E 010°31'0 0.2
2014-Aug-30 19:33N 59°20' E 010°31'0 0.0
2014-Aug-30 18:33N 59°20' E 010°31'0 0.0
2014-Aug-30 17:33N 59°20' E 010°31'0 0.0
2014-Aug-30 16:30N 59°20' E 010°31'0 0.0
2014-Aug-30 15:30N 59°20' E 010°31'0 0.0
2014-Aug-30 14:30N 59°20' E 010°31'0 0.0
2014-Aug-30 13:33N 59°20' E 010°31'0 0.0
2014-Aug-30 12:33N 59°20' E 010°31'0 0.0
2014-Aug-30 11:33N 59°20' E 010°31'0 0.0
2014-Aug-30 10:33N 59°20' E 010°31'0 0.0
2014-Aug-30 09:33N 59°20' E 010°31'0 0.0
2014-Aug-30 08:33N 59°20' E 010°31'0 0.0
2014-Aug-30 07:33N 59°20' E 010°31'0 0.0
2014-Aug-30 06:33N 59°20' E 010°31'0 0.0
2014-Aug-30 05:33N 59°20' E 010°31'0 0.0
2014-Aug-30 04:33N 59°20' E 010°31'0 0.0
2014-Aug-30 03:33N 59°20' E 010°31'0 0.0
2014-Aug-30 02:33N 59°20' E 010°31'0 0.0
2014-Aug-30 01:33N 59°20' E 010°31'0 0.0
2014-Aug-30 00:33N 59°20' E 010°31'0 0.0
2014-Aug-29 23:33N 59°20' E 010°31'0 0.0
2014-Aug-29 22:33N 59°20' E 010°31'0 0.0
2014-Aug-29 21:33N 59°20' E 010°31'0 0.0
2014-Aug-29 20:33N 59°20' E 010°31'0 0.0
2014-Aug-29 19:30N 59°20' E 010°31'0 0.0
2014-Aug-29 18:33N 59°20' E 010°31'0 0.0
2014-Aug-29 17:33N 59°20' E 010°31'0 0.0
2014-Aug-29 16:33N 59°20' E 010°31'0 0.0
2014-Aug-29 15:33N 59°20' E 010°31'0 0.0
2014-Aug-29 14:33N 59°20' E 010°31'0 0.0
2014-Aug-29 13:33N 59°20' E 010°31'0 0.0
2014-Aug-29 12:33N 59°20' E 010°31'0 0.0
2014-Aug-29 11:33N 59°20' E 010°31'0 0.0
2014-Aug-29 10:30N 59°20' E 010°31'0 0.0
2014-Aug-29 09:33N 59°20' E 010°31'0 0.0
2014-Aug-29 08:33N 59°20' E 010°31'0 0.0
2014-Aug-29 07:33N 59°20' E 010°31'0 0.0
2014-Aug-29 06:33N 59°20' E 010°31'0 0.0
2014-Aug-29 05:30N 59°20' E 010°31'0 0.0
2014-Aug-29 04:30N 59°20' E 010°31'0 0.0
2014-Aug-29 03:33N 59°20' E 010°31'1 0.6
2014-Aug-29 02:31N 59°20' E 010°31'0 0.0
2014-Aug-29 01:31N 59°20' E 010°31'0 0.1
2014-Aug-29 00:31N 59°20' E 010°31'0 0.0
2014-Aug-28 23:31N 59°20' E 010°31'0 0.0
2014-Aug-28 22:31N 59°20' E 010°31'0 0.0
2014-Aug-28 21:31N 59°20' E 010°31'0 0.0
2014-Aug-28 20:31N 59°20' E 010°31'0 0.0
2014-Aug-28 19:31N 59°20' E 010°31'0 0.0
2014-Aug-28 18:31N 59°20' E 010°31'0 0.0
2014-Aug-28 17:31N 59°20' E 010°31'0 0.0
2014-Aug-28 16:31N 59°20' E 010°31'0 0.0
2014-Aug-28 15:31N 59°20' E 010°31'0 0.1
2014-Aug-28 14:31N 59°20' E 010°31'0 0.0
2014-Aug-28 13:31N 59°20' E 010°31'0 0.0
2014-Aug-28 12:22N 59°20' E 010°31'0 0.0
2014-Aug-28 11:31N 59°20' E 010°31'0 0.0
2014-Aug-28 10:28N 59°20' E 010°31'0 0.0
2014-Aug-28 09:25N 59°20' E 010°31'0 0.0
2014-Aug-28 08:28N 59°20' E 010°31'0 0.0
2014-Aug-28 07:31N 59°20' E 010°31'0 0.0
2014-Aug-28 06:31N 59°20' E 010°31'0 0.1
2014-Aug-28 05:28N 59°20' E 010°31'0 0.0
2014-Aug-28 04:31N 59°20' E 010°31'0 0.0
2014-Aug-28 03:31N 59°20' E 010°31'0 0.0
2014-Aug-28 02:28N 59°20' E 010°31'0 0.0
2014-Aug-28 01:31N 59°20' E 010°31'0 0.0
2014-Aug-28 00:28N 59°20' E 010°31'0 0.3
2014-Aug-27 23:33N 59°20' E 010°31'1111.4
2014-Aug-27 22:33N 59°09' E 010°39'1211.7
2014-Aug-27 21:33N 58°57' E 010°36'1312.8
2014-Aug-27 20:33N 58°47' E 010°22'8 8.2
2014-Aug-27 19:33N 58°40' E 010°14'10 9.6
2014-Aug-27 18:33N 58°31' E 010°05'1211.7
2014-Aug-27 17:33N 58°21' E 009°53'1413.7
2014-Aug-27 16:34N 58°10' E 009°38'1414.3
2014-Aug-27 15:33N 57°59' E 009°21'1514.5
2014-Aug-27 14:33N 57°48' E 009°03'1414.2
2014-Aug-27 13:33N 57°37' E 008°46'1413.8
2014-Aug-27 12:33N 57°27' E 008°30'1413.9
2014-Aug-27 11:33N 57°16' E 008°13'1413.5
2014-Aug-27 10:33N 57°04' E 008°00'1313.0
2014-Aug-27 09:33N 56°53' E 007°48'1313.2
2014-Aug-27 08:33N 56°42' E 007°36'1313.2
2014-Aug-27 07:33N 56°30' E 007°24'1313.4
2014-Aug-27 06:33N 56°19' E 007°11'1313.4
2014-Aug-27 05:33N 56°07' E 006°59'1313.3
2014-Aug-27 04:33N 55°56' E 006°47'1413.2
2014-Aug-27 03:29N 55°44' E 006°34'1213.1
2014-Aug-27 02:33N 55°33' E 006°23'1313.2
2014-Aug-27 01:33N 55°22' E 006°11'1313.2
2014-Aug-27 00:33N 55°10' E 005°59'1313.2
2014-Aug-26 23:33N 54°59' E 005°48'4613.4
2014-Aug-26 20:08N 54°19' E 005°09'2413.4
2014-Aug-26 18:19N 53°60' E 004°43'14311.9
2014-Aug-26 06:22N 51°50' E 003°05'1113.9
2014-Aug-26 05:33N 51°42' E 003°18'1414.0
2014-Aug-26 04:33N 51°30' E 003°29'1211.9
2014-Aug-26 03:33N 51°24' E 003°45'1 0.5
2014-Aug-26 02:31N 51°24' E 003°46'0 0.0
2014-Aug-26 01:31N 51°24' E 003°46'0 0.0
2014-Aug-26 00:31N 51°24' E 003°46'0 0.0
2014-Aug-25 23:31N 51°24' E 003°46'0 0.1
2014-Aug-25 22:31N 51°24' E 003°46'0 0.1
2014-Aug-25 21:32N 51°24' E 003°46'2 1.6
2014-Aug-25 20:33N 51°25' E 003°44'0 0.0
2014-Aug-25 19:32N 51°25' E 003°44'0 0.0
2014-Aug-25 18:32N 51°25' E 003°44'0 0.0
2014-Aug-25 17:29N 51°25' E 003°44'0 0.0
2014-Aug-25 16:32N 51°25' E 003°44'0 0.0
2014-Aug-25 15:32N 51°25' E 003°44'0 0.0
2014-Aug-25 14:32N 51°25' E 003°44'0 0.0
2014-Aug-25 13:32N 51°25' E 003°44'0 0.0
2014-Aug-25 12:29N 51°25' E 003°44'0 0.0
2014-Aug-25 11:32N 51°25' E 003°44'0 0.0
2014-Aug-25 10:32N 51°25' E 003°44'0 0.0
2014-Aug-25 09:32N 51°25' E 003°44'0 0.0
2014-Aug-25 08:32N 51°25' E 003°44'0 0.0
2014-Aug-25 07:32N 51°25' E 003°44'0 0.0
2014-Aug-25 06:32N 51°25' E 003°44'0 0.0
2014-Aug-25 05:32N 51°25' E 003°44'0 0.0
2014-Aug-25 04:32N 51°25' E 003°44'0 0.0
2014-Aug-25 03:32N 51°25' E 003°44'0 0.0
2014-Aug-25 02:32N 51°25' E 003°44'0 0.0
2014-Aug-25 01:32N 51°25' E 003°44'0 0.0
2014-Aug-25 00:32N 51°25' E 003°44'0 0.0
2014-Aug-24 23:26N 51°25' E 003°44'0 0.0
2014-Aug-24 22:32N 51°25' E 003°44'0 0.0
2014-Aug-24 21:32N 51°25' E 003°44'0 0.0
2014-Aug-24 20:32N 51°25' E 003°44'0 0.0
2014-Aug-24 19:32N 51°25' E 003°44'0 0.0
2014-Aug-24 18:32N 51°25' E 003°44'0 0.0
2014-Aug-24 17:32N 51°25' E 003°44'0 0.0
2014-Aug-24 16:32N 51°25' E 003°44'0 0.0
2014-Aug-24 15:32N 51°25' E 003°44'0 0.0
2014-Aug-24 14:32N 51°25' E 003°44'0 0.0
2014-Aug-24 13:32N 51°25' E 003°44'0 0.0
2014-Aug-24 12:32N 51°25' E 003°44'0 0.0
2014-Aug-24 11:32N 51°25' E 003°44'0 0.0
2014-Aug-24 10:26N 51°25' E 003°44'0 0.0
2014-Aug-24 09:32N 51°25' E 003°44'0 0.0
2014-Aug-24 08:32N 51°25' E 003°44'0 0.0
2014-Aug-24 07:32N 51°25' E 003°44'0 0.0
2014-Aug-24 06:32N 51°25' E 003°44'0 0.0
2014-Aug-24 05:32N 51°25' E 003°44'0 0.0
2014-Aug-24 04:32N 51°25' E 003°44'0 0.0
2014-Aug-24 03:32N 51°25' E 003°44'0 0.0
2014-Aug-24 02:32N 51°25' E 003°44'0 0.0
2014-Aug-24 01:32N 51°25' E 003°44'0 0.0
2014-Aug-24 00:32N 51°25' E 003°44'0 0.0
2014-Aug-23 23:32N 51°25' E 003°44'0 0.0
2014-Aug-23 22:32N 51°25' E 003°44'0 0.0
2014-Aug-23 21:32N 51°25' E 003°44'0 0.0
2014-Aug-23 20:32N 51°25' E 003°44'0 0.0
2014-Aug-23 19:32N 51°25' E 003°44'0 0.0
2014-Aug-23 03:32N 51°25' E 003°44'0 0.0
2014-Aug-23 02:32N 51°25' E 003°44'0 0.0
2014-Aug-23 01:32N 51°25' E 003°44'0 0.0
2014-Aug-23 00:32N 51°25' E 003°44'0 0.0
2014-Aug-22 23:32N 51°25' E 003°44'0 0.0
2014-Aug-22 22:32N 51°25' E 003°44'0 0.0
2014-Aug-22 21:32N 51°25' E 003°44'0 0.0
2014-Aug-22 20:33N 51°25' E 003°44'5 5.3
2014-Aug-22 19:33N 51°26' E 003°35'4 3.6
2014-Aug-22 18:32N 51°26' E 003°29'0 0.0
2014-Aug-22 17:32N 51°26' E 003°29'0 0.0
2014-Aug-22 16:32N 51°26' E 003°29'0 0.1
2014-Aug-22 15:32N 51°26' E 003°30'0 0.0
2014-Aug-22 14:32N 51°26' E 003°29'0 0.0
2014-Aug-22 13:32N 51°26' E 003°30'0 0.2
2014-Aug-22 12:32N 51°26' E 003°30'0 0.1
2014-Aug-22 11:32N 51°26' E 003°30'0 0.1
2014-Aug-22 10:32N 51°26' E 003°30'0 0.0
2014-Aug-22 09:32N 51°26' E 003°30'0 0.0
2014-Aug-22 08:32N 51°26' E 003°30'3 3.5
2014-Aug-22 07:33N 51°26' E 003°35'1010.1
2014-Aug-22 06:34N 51°21' E 003°49'9 8.6
2014-Aug-22 05:34N 51°24' E 004°02'9 9.5
2014-Aug-22 04:34N 51°21' E 004°16'0 0.4
2014-Aug-22 03:34N 51°21' E 004°17'1 0.6
2014-Aug-22 02:33N 51°21' E 004°18'5 5.0
2014-Aug-22 01:33N 51°16' E 004°21'0 0.1
2014-Aug-22 00:32N 51°16' E 004°21'0 0.0
2014-Aug-21 23:32N 51°16' E 004°21'0 0.0
2014-Aug-21 22:32N 51°16' E 004°21'0 0.0
2014-Aug-21 21:32N 51°16' E 004°21'0 0.0
2014-Aug-21 20:32N 51°16' E 004°21'0 0.0
2014-Aug-21 19:32N 51°16' E 004°21'0 0.0
2014-Aug-21 18:32N 51°16' E 004°21'0 0.0
2014-Aug-21 17:32N 51°16' E 004°21'0 0.0
2014-Aug-21 16:32N 51°16' E 004°21'0 0.0
2014-Aug-21 15:32N 51°16' E 004°21'0 0.0
2014-Aug-21 14:32N 51°16' E 004°21'0 0.0
2014-Aug-21 13:32N 51°16' E 004°21'0 0.0
2014-Aug-21 12:32N 51°16' E 004°21'0 0.0
2014-Aug-21 11:29N 51°16' E 004°21'0 0.0
2014-Aug-21 10:32N 51°16' E 004°21'0 0.0
2014-Aug-21 09:32N 51°16' E 004°21'0 0.0
2014-Aug-21 08:32N 51°16' E 004°21'0 0.0
2014-Aug-21 07:32N 51°16' E 004°21'0 0.0
2014-Aug-21 06:32N 51°16' E 004°21'0 0.0
2014-Aug-21 05:32N 51°16' E 004°21'0 0.0
2014-Aug-21 04:29N 51°16' E 004°21'0 0.0
2014-Aug-21 03:32N 51°16' E 004°21'0 0.0
2014-Aug-21 02:32N 51°16' E 004°21'0 0.0
2014-Aug-21 01:32N 51°16' E 004°21'0 0.0
2014-Aug-21 00:26N 51°16' E 004°21'  
Track history (hours):
 
Tides and Currents Weather Stations Pressure Air Temp Water Temp Dewpoint Dewpoint Depression Visibility Wind Speed Wind Dir Waves Ship Positions

Baltic Marshall

Last reported at 2014-Aug-31 00:15 UTC. Time now 2014-Aug-31 02:37 UTC.
Position N 58°47' E 010°22'.

Length 183 m; draft 10.6 m.

Type: Tanker. MMSI: 212118000.

Date/timePositionNaut miles runAvg speedWind from/ knotsBaromVisibWave heightAir tempDewpointWater temp
2014-Aug-31 00:15N 58°47' E 010°22'912.7
2014-Aug-30 23:33N 58°54' E 010°31'10 9.6
2014-Aug-30 22:33N 59°02' E 010°42'9 9.2
2014-Aug-30 21:33N 59°11' E 010°38'10 9.6
2014-Aug-30 20:33N 59°20' E 010°31'0 0.2
2014-Aug-30 19:33N 59°20' E 010°31'0 0.0
2014-Aug-30 18:33N 59°20' E 010°31'0 0.0
2014-Aug-30 17:33N 59°20' E 010°31'0 0.0
2014-Aug-30 16:30N 59°20' E 010°31'0 0.0
2014-Aug-30 15:30N 59°20' E 010°31'0 0.0
2014-Aug-30 14:30N 59°20' E 010°31'0 0.0
2014-Aug-30 13:33N 59°20' E 010°31'0 0.0
2014-Aug-30 12:33N 59°20' E 010°31'0 0.0
2014-Aug-30 11:33N 59°20' E 010°31'0 0.0
2014-Aug-30 10:33N 59°20' E 010°31'0 0.0
2014-Aug-30 09:33N 59°20' E 010°31'0 0.0
2014-Aug-30 08:33N 59°20' E 010°31'0 0.0
2014-Aug-30 07:33N 59°20' E 010°31'0 0.0
2014-Aug-30 06:33N 59°20' E 010°31'0 0.0
2014-Aug-30 05:33N 59°20' E 010°31'0 0.0
2014-Aug-30 04:33N 59°20' E 010°31'0 0.0
2014-Aug-30 03:33N 59°20' E 010°31'0 0.0
2014-Aug-30 02:33N 59°20' E 010°31'0 0.0
2014-Aug-30 01:33N 59°20' E 010°31'0 0.0
2014-Aug-30 00:33N 59°20' E 010°31'0 0.0
2014-Aug-29 23:33N 59°20' E 010°31'0 0.0
2014-Aug-29 22:33N 59°20' E 010°31'0 0.0
2014-Aug-29 21:33N 59°20' E 010°31'0 0.0
2014-Aug-29 20:33N 59°20' E 010°31'0 0.0
2014-Aug-29 19:30N 59°20' E 010°31'0 0.0
2014-Aug-29 18:33N 59°20' E 010°31'0 0.0
2014-Aug-29 17:33N 59°20' E 010°31'0 0.0
2014-Aug-29 16:33N 59°20' E 010°31'0 0.0
2014-Aug-29 15:33N 59°20' E 010°31'0 0.0
2014-Aug-29 14:33N 59°20' E 010°31'0 0.0
2014-Aug-29 13:33N 59°20' E 010°31'0 0.0
2014-Aug-29 12:33N 59°20' E 010°31'0 0.0
2014-Aug-29 11:33N 59°20' E 010°31'0 0.0
2014-Aug-29 10:30N 59°20' E 010°31'0 0.0
2014-Aug-29 09:33N 59°20' E 010°31'0 0.0
2014-Aug-29 08:33N 59°20' E 010°31'0 0.0
2014-Aug-29 07:33N 59°20' E 010°31'0 0.0
2014-Aug-29 06:33N 59°20' E 010°31'0 0.0
2014-Aug-29 05:30N 59°20' E 010°31'0 0.0
2014-Aug-29 04:30N 59°20' E 010°31'0 0.0
2014-Aug-29 03:33N 59°20' E 010°31'1 0.6
2014-Aug-29 02:31N 59°20' E 010°31'0 0.0
2014-Aug-29 01:31N 59°20' E 010°31'0 0.1
2014-Aug-29 00:31N 59°20' E 010°31'0 0.0
2014-Aug-28 23:31N 59°20' E 010°31'0 0.0
2014-Aug-28 22:31N 59°20' E 010°31'0 0.0
2014-Aug-28 21:31N 59°20' E 010°31'0 0.0
2014-Aug-28 20:31N 59°20' E 010°31'0 0.0
2014-Aug-28 19:31N 59°20' E 010°31'0 0.0
2014-Aug-28 18:31N 59°20' E 010°31'0 0.0
2014-Aug-28 17:31N 59°20' E 010°31'0 0.0
2014-Aug-28 16:31N 59°20' E 010°31'0 0.0
2014-Aug-28 15:31N 59°20' E 010°31'0 0.1
2014-Aug-28 14:31N 59°20' E 010°31'0 0.0
2014-Aug-28 13:31N 59°20' E 010°31'0 0.0
2014-Aug-28 12:22N 59°20' E 010°31'0 0.0
2014-Aug-28 11:31N 59°20' E 010°31'0 0.0
2014-Aug-28 10:28N 59°20' E 010°31'0 0.0
2014-Aug-28 09:25N 59°20' E 010°31'0 0.0
2014-Aug-28 08:28N 59°20' E 010°31'0 0.0
2014-Aug-28 07:31N 59°20' E 010°31'0 0.0
2014-Aug-28 06:31N 59°20' E 010°31'0 0.1
2014-Aug-28 05:28N 59°20' E 010°31'0 0.0
2014-Aug-28 04:31N 59°20' E 010°31'0 0.0
2014-Aug-28 03:31N 59°20' E 010°31'0 0.0
2014-Aug-28 02:28N 59°20' E 010°31'0 0.0
2014-Aug-28 01:31N 59°20' E 010°31'0 0.0
2014-Aug-28 00:28N 59°20' E 010°31'0 0.3
2014-Aug-27 23:33N 59°20' E 010°31'1111.4
2014-Aug-27 22:33N 59°09' E 010°39'1211.7
2014-Aug-27 21:33N 58°57' E 010°36'1312.8
2014-Aug-27 20:33N 58°47' E 010°22'8 8.2
2014-Aug-27 19:33N 58°40' E 010°14'10 9.6
2014-Aug-27 18:33N 58°31' E 010°05'1211.7
2014-Aug-27 17:33N 58°21' E 009°53'1413.7
2014-Aug-27 16:34N 58°10' E 009°38'1414.3
2014-Aug-27 15:33N 57°59' E 009°21'1514.5
2014-Aug-27 14:33N 57°48' E 009°03'1414.2
2014-Aug-27 13:33N 57°37' E 008°46'1413.8
2014-Aug-27 12:33N 57°27' E 008°30'1413.9
2014-Aug-27 11:33N 57°16' E 008°13'1413.5
2014-Aug-27 10:33N 57°04' E 008°00'1313.0
2014-Aug-27 09:33N 56°53' E 007°48'1313.2
2014-Aug-27 08:33N 56°42' E 007°36'1313.2
2014-Aug-27 07:33N 56°30' E 007°24'1313.4
2014-Aug-27 06:33N 56°19' E 007°11'1313.4
2014-Aug-27 05:33N 56°07' E 006°59'1313.3
2014-Aug-27 04:33N 55°56' E 006°47'1413.2
2014-Aug-27 03:29N 55°44' E 006°34'1213.1
2014-Aug-27 02:33N 55°33' E 006°23'1313.2
2014-Aug-27 01:33N 55°22' E 006°11'1313.2
2014-Aug-27 00:33N 55°10' E 005°59'1313.2
2014-Aug-26 23:33N 54°59' E 005°48'4613.4
2014-Aug-26 20:08N 54°19' E 005°09'2413.4
2014-Aug-26 18:19N 53°60' E 004°43'14311.9
2014-Aug-26 06:22N 51°50' E 003°05'1113.9
2014-Aug-26 05:33N 51°42' E 003°18'1414.0
2014-Aug-26 04:33N 51°30' E 003°29'1211.9
2014-Aug-26 03:33N 51°24' E 003°45'1 0.5
2014-Aug-26 02:31N 51°24' E 003°46'0 0.0
2014-Aug-26 01:31N 51°24' E 003°46'0 0.0
2014-Aug-26 00:31N 51°24' E 003°46'0 0.0
2014-Aug-25 23:31N 51°24' E 003°46'0 0.1
2014-Aug-25 22:31N 51°24' E 003°46'0 0.1
2014-Aug-25 21:32N 51°24' E 003°46'2 1.6
2014-Aug-25 20:33N 51°25' E 003°44'0 0.0
2014-Aug-25 19:32N 51°25' E 003°44'0 0.0
2014-Aug-25 18:32N 51°25' E 003°44'0 0.0
2014-Aug-25 17:29N 51°25' E 003°44'0 0.0
2014-Aug-25 16:32N 51°25' E 003°44'0 0.0
2014-Aug-25 15:32N 51°25' E 003°44'0 0.0
2014-Aug-25 14:32N 51°25' E 003°44'0 0.0
2014-Aug-25 13:32N 51°25' E 003°44'0 0.0
2014-Aug-25 12:29N 51°25' E 003°44'0 0.0
2014-Aug-25 11:32N 51°25' E 003°44'0 0.0
2014-Aug-25 10:32N 51°25' E 003°44'0 0.0
2014-Aug-25 09:32N 51°25' E 003°44'0 0.0
2014-Aug-25 08:32N 51°25' E 003°44'0 0.0
2014-Aug-25 07:32N 51°25' E 003°44'0 0.0
2014-Aug-25 06:32N 51°25' E 003°44'0 0.0
2014-Aug-25 05:32N 51°25' E 003°44'0 0.0
2014-Aug-25 04:32N 51°25' E 003°44'0 0.0
2014-Aug-25 03:32N 51°25' E 003°44'0 0.0
2014-Aug-25 02:32N 51°25' E 003°44'0 0.0
2014-Aug-25 01:32N 51°25' E 003°44'0 0.0
2014-Aug-25 00:32N 51°25' E 003°44'0 0.0
2014-Aug-24 23:26N 51°25' E 003°44'0 0.0
2014-Aug-24 22:32N 51°25' E 003°44'0 0.0
2014-Aug-24 21:32N 51°25' E 003°44'0 0.0
2014-Aug-24 20:32N 51°25' E 003°44'0 0.0
2014-Aug-24 19:32N 51°25' E 003°44'0 0.0
2014-Aug-24 18:32N 51°25' E 003°44'0 0.0
2014-Aug-24 17:32N 51°25' E 003°44'0 0.0
2014-Aug-24 16:32N 51°25' E 003°44'0 0.0
2014-Aug-24 15:32N 51°25' E 003°44'0 0.0
2014-Aug-24 14:32N 51°25' E 003°44'0 0.0
2014-Aug-24 13:32N 51°25' E 003°44'0 0.0
2014-Aug-24 12:32N 51°25' E 003°44'0 0.0
2014-Aug-24 11:32N 51°25' E 003°44'0 0.0
2014-Aug-24 10:26N 51°25' E 003°44'0 0.0
2014-Aug-24 09:32N 51°25' E 003°44'0 0.0
2014-Aug-24 08:32N 51°25' E 003°44'0 0.0
2014-Aug-24 07:32N 51°25' E 003°44'0 0.0
2014-Aug-24 06:32N 51°25' E 003°44'0 0.0
2014-Aug-24 05:32N 51°25' E 003°44'0 0.0
2014-Aug-24 04:32N 51°25' E 003°44'0 0.0
2014-Aug-24 03:32N 51°25' E 003°44'0 0.0
2014-Aug-24 02:32N 51°25' E 003°44'0 0.0
2014-Aug-24 01:32N 51°25' E 003°44'0 0.0
2014-Aug-24 00:32N 51°25' E 003°44'0 0.0
2014-Aug-23 23:32N 51°25' E 003°44'0 0.0
2014-Aug-23 22:32N 51°25' E 003°44'0 0.0
2014-Aug-23 21:32N 51°25' E 003°44'0 0.0
2014-Aug-23 20:32N 51°25' E 003°44'0 0.0
2014-Aug-23 19:32N 51°25' E 003°44'0 0.0
2014-Aug-23 03:32N 51°25' E 003°44'0 0.0
2014-Aug-23 02:32N 51°25' E 003°44'0 0.0
2014-Aug-23 01:32N 51°25' E 003°44'0 0.0
2014-Aug-23 00:32N 51°25' E 003°44'0 0.0
2014-Aug-22 23:32N 51°25' E 003°44'0 0.0
2014-Aug-22 22:32N 51°25' E 003°44'0 0.0
2014-Aug-22 21:32N 51°25' E 003°44'0 0.0
2014-Aug-22 20:33N 51°25' E 003°44'5 5.3
2014-Aug-22 19:33N 51°26' E 003°35'4 3.6
2014-Aug-22 18:32N 51°26' E 003°29'0 0.0
2014-Aug-22 17:32N 51°26' E 003°29'0 0.0
2014-Aug-22 16:32N 51°26' E 003°29'0 0.1
2014-Aug-22 15:32N 51°26' E 003°30'0 0.0
2014-Aug-22 14:32N 51°26' E 003°29'0 0.0
2014-Aug-22 13:32N 51°26' E 003°30'0 0.2
2014-Aug-22 12:32N 51°26' E 003°30'0 0.1
2014-Aug-22 11:32N 51°26' E 003°30'0 0.1
2014-Aug-22 10:32N 51°26' E 003°30'0 0.0
2014-Aug-22 09:32N 51°26' E 003°30'0 0.0
2014-Aug-22 08:32N 51°26' E 003°30'3 3.5
2014-Aug-22 07:33N 51°26' E 003°35'1010.1
2014-Aug-22 06:34N 51°21' E 003°49'9 8.6
2014-Aug-22 05:34N 51°24' E 004°02'9 9.5
2014-Aug-22 04:34N 51°21' E 004°16'0 0.4
2014-Aug-22 03:34N 51°21' E 004°17'1 0.6
2014-Aug-22 02:33N 51°21' E 004°18'5 5.0
2014-Aug-22 01:33N 51°16' E 004°21'0 0.1
2014-Aug-22 00:32N 51°16' E 004°21'0 0.0
2014-Aug-21 23:32N 51°16' E 004°21'0 0.0
2014-Aug-21 22:32N 51°16' E 004°21'0 0.0
2014-Aug-21 21:32N 51°16' E 004°21'0 0.0
2014-Aug-21 20:32N 51°16' E 004°21'0 0.0
2014-Aug-21 19:32N 51°16' E 004°21'0 0.0
2014-Aug-21 18:32N 51°16' E 004°21'0 0.0
2014-Aug-21 17:32N 51°16' E 004°21'0 0.0
2014-Aug-21 16:32N 51°16' E 004°21'0 0.0
2014-Aug-21 15:32N 51°16' E 004°21'0 0.0
2014-Aug-21 14:32N 51°16' E 004°21'0 0.0
2014-Aug-21 13:32N 51°16' E 004°21'0 0.0
2014-Aug-21 12:32N 51°16' E 004°21'0 0.0
2014-Aug-21 11:29N 51°16' E 004°21'0 0.0
2014-Aug-21 10:32N 51°16' E 004°21'0 0.0
2014-Aug-21 09:32N 51°16' E 004°21'0 0.0
2014-Aug-21 08:32N 51°16' E 004°21'0 0.0
2014-Aug-21 07:32N 51°16' E 004°21'0 0.0
2014-Aug-21 06:32N 51°16' E 004°21'0 0.0
2014-Aug-21 05:32N 51°16' E 004°21'0 0.0
2014-Aug-21 04:29N 51°16' E 004°21'0 0.0
2014-Aug-21 03:32N 51°16' E 004°21'0 0.0
2014-Aug-21 02:32N 51°16' E 004°21'0 0.0
2014-Aug-21 01:32N 51°16' E 004°21'0 0.0
2014-Aug-21 00:26N 51°16' E 004°21'  

Dump ship's entire track history